sensor_id;sensor_type;location;lat;lon;timestamp;P1;durP1;ratioP1;P2;durP2;ratioP2
49678;SDS011;35570;48.218;16.326;2023-03-01T00:57:51;24.88;;;18.10;;
49678;SDS011;35570;48.218;16.326;2023-03-01T01:54:42;26.67;;;17.90;;
49678;SDS011;35570;48.218;16.326;2023-03-01T06:21:56;35.58;;;24.90;;
49678;SDS011;35570;48.218;16.326;2023-03-01T06:45:02;36.03;;;24.10;;
49678;SDS011;35570;48.218;16.326;2023-03-01T06:47:29;34.08;;;24.13;;
49678;SDS011;35570;48.218;16.326;2023-03-01T06:49:55;32.40;;;23.45;;
49678;SDS011;35570;48.218;16.326;2023-03-01T06:52:20;39.15;;;25.23;;
49678;SDS011;35570;48.218;16.326;2023-03-01T06:54:46;36.05;;;24.73;;
49678;SDS011;35570;48.218;16.326;2023-03-01T06:57:12;36.20;;;25.58;;
49678;SDS011;35570;48.218;16.326;2023-03-01T06:59:37;37.72;;;25.95;;
49678;SDS011;35570;48.218;16.326;2023-03-01T07:02:03;37.67;;;26.30;;
49678;SDS011;35570;48.218;16.326;2023-03-01T07:04:29;40.83;;;24.83;;
49678;SDS011;35570;48.218;16.326;2023-03-01T07:06:55;35.63;;;24.77;;
49678;SDS011;35570;48.218;16.326;2023-03-01T07:09:22;32.97;;;24.35;;
49678;SDS011;35570;48.218;16.326;2023-03-01T07:11:48;34.50;;;24.20;;
49678;SDS011;35570;48.218;16.326;2023-03-01T07:14:14;38.92;;;23.58;;
49678;SDS011;35570;48.218;16.326;2023-03-01T07:16:41;33.75;;;24.38;;
49678;SDS011;35570;48.218;16.326;2023-03-01T07:19:07;31.63;;;23.85;;
49678;SDS011;35570;48.218;16.326;2023-03-01T07:21:33;31.75;;;22.92;;
49678;SDS011;35570;48.218;16.326;2023-03-01T07:23:58;30.42;;;22.48;;
49678;SDS011;35570;48.218;16.326;2023-03-01T07:26:24;32.90;;;21.80;;
49678;SDS011;35570;48.218;16.326;2023-03-01T07:28:50;35.17;;;23.95;;
49678;SDS011;35570;48.218;16.326;2023-03-01T07:31:16;36.28;;;24.90;;
49678;SDS011;35570;48.218;16.326;2023-03-01T07:33:48;37.25;;;25.00;;
49678;SDS011;35570;48.218;16.326;2023-03-01T07:36:14;33.28;;;24.40;;
49678;SDS011;35570;48.218;16.326;2023-03-01T07:38:40;38.67;;;26.17;;
49678;SDS011;35570;48.218;16.326;2023-03-01T07:41:06;34.67;;;25.08;;
49678;SDS011;35570;48.218;16.326;2023-03-01T07:43:33;34.97;;;24.38;;
49678;SDS011;35570;48.218;16.326;2023-03-01T07:46:00;33.47;;;24.15;;
49678;SDS011;35570;48.218;16.326;2023-03-01T07:48:27;31.80;;;23.00;;
49678;SDS011;35570;48.218;16.326;2023-03-01T07:50:53;33.72;;;24.65;;
49678;SDS011;35570;48.218;16.326;2023-03-01T07:53:19;40.90;;;24.02;;
49678;SDS011;35570;48.218;16.326;2023-03-01T07:55:45;34.38;;;23.80;;
49678;SDS011;35570;48.218;16.326;2023-03-01T07:58:11;35.10;;;24.00;;
49678;SDS011;35570;48.218;16.326;2023-03-01T08:00:37;32.60;;;24.25;;
49678;SDS011;35570;48.218;16.326;2023-03-01T08:03:03;34.88;;;23.65;;
49678;SDS011;35570;48.218;16.326;2023-03-01T08:05:29;30.95;;;24.02;;
49678;SDS011;35570;48.218;16.326;2023-03-01T08:07:55;33.72;;;24.45;;
49678;SDS011;35570;48.218;16.326;2023-03-01T08:10:21;30.77;;;23.98;;
49678;SDS011;35570;48.218;16.326;2023-03-01T08:12:51;34.83;;;25.13;;
49678;SDS011;35570;48.218;16.326;2023-03-01T08:15:27;36.38;;;24.85;;
49678;SDS011;35570;48.218;16.326;2023-03-01T08:17:53;33.38;;;23.85;;
49678;SDS011;35570;48.218;16.326;2023-03-01T08:20:19;36.20;;;26.30;;
49678;SDS011;35570;48.218;16.326;2023-03-01T08:22:45;37.60;;;25.55;;
49678;SDS011;35570;48.218;16.326;2023-03-01T08:25:11;38.92;;;26.70;;
49678;SDS011;35570;48.218;16.326;2023-03-01T08:27:37;34.80;;;23.98;;
49678;SDS011;35570;48.218;16.326;2023-03-01T08:30:03;36.65;;;24.40;;
49678;SDS011;35570;48.218;16.326;2023-03-01T08:32:32;36.08;;;24.58;;
49678;SDS011;35570;48.218;16.326;2023-03-01T08:35:01;35.63;;;25.17;;
49678;SDS011;35570;48.218;16.326;2023-03-01T08:37:27;37.97;;;25.40;;
49678;SDS011;35570;48.218;16.326;2023-03-01T08:39:58;36.90;;;24.50;;
49678;SDS011;35570;48.218;16.326;2023-03-01T08:42:25;34.90;;;24.45;;
49678;SDS011;35570;48.218;16.326;2023-03-01T08:44:51;43.92;;;24.20;;
49678;SDS011;35570;48.218;16.326;2023-03-01T08:47:17;32.80;;;24.50;;
49678;SDS011;35570;48.218;16.326;2023-03-01T08:49:43;36.60;;;24.45;;
49678;SDS011;35570;48.218;16.326;2023-03-01T08:52:09;39.33;;;25.00;;
49678;SDS011;35570;48.218;16.326;2023-03-01T08:54:36;34.25;;;23.42;;
49678;SDS011;35570;48.218;16.326;2023-03-01T08:57:02;37.15;;;24.83;;
49678;SDS011;35570;48.218;16.326;2023-03-01T08:59:28;34.75;;;25.35;;
49678;SDS011;35570;48.218;16.326;2023-03-01T09:01:55;39.35;;;25.02;;
49678;SDS011;35570;48.218;16.326;2023-03-01T09:09:31;33.30;;;23.50;;
49678;SDS011;35570;48.218;16.326;2023-03-01T09:11:57;34.60;;;24.27;;
49678;SDS011;35570;48.218;16.326;2023-03-01T09:14:23;33.50;;;25.23;;
49678;SDS011;35570;48.218;16.326;2023-03-01T09:16:49;28.95;;;23.33;;
49678;SDS011;35570;48.218;16.326;2023-03-01T09:19:16;35.58;;;25.70;;
49678;SDS011;35570;48.218;16.326;2023-03-01T09:21:42;34.03;;;24.60;;
49678;SDS011;35570;48.218;16.326;2023-03-01T09:24:17;36.13;;;25.38;;
49678;SDS011;35570;48.218;16.326;2023-03-01T09:26:44;33.35;;;24.30;;
49678;SDS011;35570;48.218;16.326;2023-03-01T09:29:11;34.35;;;24.48;;
49678;SDS011;35570;48.218;16.326;2023-03-01T09:31:38;34.10;;;23.50;;
49678;SDS011;35570;48.218;16.326;2023-03-01T09:34:04;30.23;;;24.00;;
49678;SDS011;35570;48.218;16.326;2023-03-01T09:36:31;31.73;;;22.77;;
49678;SDS011;35570;48.218;16.326;2023-03-01T09:38:57;36.50;;;25.00;;
49678;SDS011;35570;48.218;16.326;2023-03-01T09:44:27;32.50;;;21.75;;
49678;SDS011;35570;48.218;16.326;2023-03-01T09:47:11;32.88;;;22.05;;
49678;SDS011;35570;48.218;16.326;2023-03-01T09:49:42;29.33;;;22.38;;
49678;SDS011;35570;48.218;16.326;2023-03-01T09:57:49;31.33;;;23.23;;
49678;SDS011;35570;48.218;16.326;2023-03-01T10:00:27;35.65;;;24.13;;
49678;SDS011;35570;48.218;16.326;2023-03-01T10:03:23;28.73;;;21.90;;
49678;SDS011;35570;48.218;16.326;2023-03-01T10:06:14;34.03;;;22.52;;
49678;SDS011;35570;48.218;16.326;2023-03-01T10:11:21;33.30;;;23.40;;
49678;SDS011;35570;48.218;16.326;2023-03-01T10:14:00;29.30;;;20.90;;
49678;SDS011;35570;48.218;16.326;2023-03-01T10:16:50;27.10;;;20.77;;
49678;SDS011;35570;48.218;16.326;2023-03-01T10:19:23;27.20;;;18.80;;
49678;SDS011;35570;48.218;16.326;2023-03-01T10:22:00;30.33;;;20.80;;
49678;SDS011;35570;48.218;16.326;2023-03-01T10:24:40;28.60;;;20.15;;
49678;SDS011;35570;48.218;16.326;2023-03-01T10:27:13;26.95;;;19.88;;
49678;SDS011;35570;48.218;16.326;2023-03-01T10:30:00;27.35;;;19.88;;
49678;SDS011;35570;48.218;16.326;2023-03-01T10:32:36;25.35;;;19.25;;
49678;SDS011;35570;48.218;16.326;2023-03-01T10:38:05;28.40;;;18.98;;
49678;SDS011;35570;48.218;16.326;2023-03-01T10:40:55;27.48;;;18.73;;
49678;SDS011;35570;48.218;16.326;2023-03-01T10:43:23;26.85;;;17.90;;
49678;SDS011;35570;48.218;16.326;2023-03-01T10:45:57;27.35;;;17.25;;
49678;SDS011;35570;48.218;16.326;2023-03-01T10:48:23;22.83;;;18.45;;
49678;SDS011;35570;48.218;16.326;2023-03-01T10:51:14;25.98;;;18.52;;
49678;SDS011;35570;48.218;16.326;2023-03-01T10:53:43;25.90;;;18.17;;
49678;SDS011;35570;48.218;16.326;2023-03-01T10:56:16;25.38;;;18.15;;
49678;SDS011;35570;48.218;16.326;2023-03-01T10:58:59;24.27;;;17.70;;
49678;SDS011;35570;48.218;16.326;2023-03-01T11:01:28;22.48;;;18.27;;
49678;SDS011;35570;48.218;16.326;2023-03-01T11:06:34;16.55;;;13.43;;
49678;SDS011;35570;48.218;16.326;2023-03-01T11:09:23;18.02;;;12.68;;
49678;SDS011;35570;48.218;16.326;2023-03-01T11:11:56;18.20;;;13.55;;
49678;SDS011;35570;48.218;16.326;2023-03-01T11:14:38;17.02;;;13.70;;
49678;SDS011;35570;48.218;16.326;2023-03-01T11:17:14;17.20;;;12.68;;
49678;SDS011;35570;48.218;16.326;2023-03-01T11:20:05;17.85;;;13.38;;
49678;SDS011;35570;48.218;16.326;2023-03-01T11:22:32;17.90;;;13.95;;
49678;SDS011;35570;48.218;16.326;2023-03-01T11:24:59;22.63;;;15.18;;
49678;SDS011;35570;48.218;16.326;2023-03-01T11:27:28;19.25;;;14.88;;
49678;SDS011;35570;48.218;16.326;2023-03-01T11:32:39;22.55;;;15.90;;
49678;SDS011;35570;48.218;16.326;2023-03-01T11:35:15;25.33;;;16.15;;
49678;SDS011;35570;48.218;16.326;2023-03-01T11:38:24;25.80;;;18.00;;
49678;SDS011;35570;48.218;16.326;2023-03-01T11:43:22;26.30;;;19.15;;
49678;SDS011;35570;48.218;16.326;2023-03-01T11:48:59;26.33;;;18.40;;
49678;SDS011;35570;48.218;16.326;2023-03-01T12:02:51;22.52;;;17.30;;
49678;SDS011;35570;48.218;16.326;2023-03-01T12:09:07;21.98;;;16.35;;
49678;SDS011;35570;48.218;16.326;2023-03-01T12:16:59;22.13;;;18.08;;
49678;SDS011;35570;48.218;16.326;2023-03-01T12:19:45;25.88;;;17.88;;
49678;SDS011;35570;48.218;16.326;2023-03-01T12:36:05;20.83;;;17.33;;
49678;SDS011;35570;48.218;16.326;2023-03-01T12:38:50;23.60;;;17.23;;
49678;SDS011;35570;48.218;16.326;2023-03-01T12:47:01;23.80;;;16.83;;
49678;SDS011;35570;48.218;16.326;2023-03-01T12:49:41;21.02;;;16.65;;
49678;SDS011;35570;48.218;16.326;2023-03-01T12:52:16;22.88;;;18.95;;
49678;SDS011;35570;48.218;16.326;2023-03-01T12:55:06;24.75;;;18.45;;
49678;SDS011;35570;48.218;16.326;2023-03-01T12:57:57;25.52;;;17.58;;
49678;SDS011;35570;48.218;16.326;2023-03-01T13:00:53;21.40;;;17.13;;
49678;SDS011;35570;48.218;16.326;2023-03-01T13:06:22;22.30;;;17.17;;
49678;SDS011;35570;48.218;16.326;2023-03-01T13:11:43;20.25;;;15.20;;
49678;SDS011;35570;48.218;16.326;2023-03-01T13:16:47;17.80;;;14.98;;
49678;SDS011;35570;48.218;16.326;2023-03-01T13:21:45;17.30;;;15.30;;
49678;SDS011;35570;48.218;16.326;2023-03-01T13:24:28;17.08;;;15.27;;
49678;SDS011;35570;48.218;16.326;2023-03-01T13:29:41;16.63;;;14.77;;
49678;SDS011;35570;48.218;16.326;2023-03-01T13:34:51;18.27;;;14.98;;
49678;SDS011;35570;48.218;16.326;2023-03-01T13:37:22;21.33;;;16.13;;
49678;SDS011;35570;48.218;16.326;2023-03-01T13:39:51;18.52;;;15.38;;
49678;SDS011;35570;48.218;16.326;2023-03-01T13:45:14;23.52;;;15.65;;
49678;SDS011;35570;48.218;16.326;2023-03-01T13:47:55;21.35;;;15.65;;
49678;SDS011;35570;48.218;16.326;2023-03-01T13:50:25;19.00;;;15.35;;
49678;SDS011;35570;48.218;16.326;2023-03-01T13:53:02;21.38;;;16.88;;
49678;SDS011;35570;48.218;16.326;2023-03-01T13:58:32;17.17;;;14.45;;
49678;SDS011;35570;48.218;16.326;2023-03-01T14:01:18;20.30;;;15.00;;
49678;SDS011;35570;48.218;16.326;2023-03-01T14:03:47;16.85;;;14.60;;
49678;SDS011;35570;48.218;16.326;2023-03-01T14:06:17;18.77;;;14.82;;
49678;SDS011;35570;48.218;16.326;2023-03-01T14:08:46;18.35;;;14.65;;
49678;SDS011;35570;48.218;16.326;2023-03-01T14:19:26;20.30;;;14.45;;
49678;SDS011;35570;48.218;16.326;2023-03-01T14:22:02;16.95;;;13.57;;
49678;SDS011;35570;48.218;16.326;2023-03-01T14:27:15;17.23;;;14.43;;
49678;SDS011;35570;48.218;16.326;2023-03-01T14:29:42;15.10;;;13.05;;
49678;SDS011;35570;48.218;16.326;2023-03-01T14:32:09;20.10;;;13.93;;
49678;SDS011;35570;48.218;16.326;2023-03-01T14:34:36;16.70;;;13.80;;
49678;SDS011;35570;48.218;16.326;2023-03-01T14:37:11;17.17;;;13.88;;
49678;SDS011;35570;48.218;16.326;2023-03-01T14:39:57;17.65;;;15.13;;
49678;SDS011;35570;48.218;16.326;2023-03-01T14:42:25;18.23;;;13.98;;
49678;SDS011;35570;48.218;16.326;2023-03-01T14:44:55;17.48;;;14.95;;
49678;SDS011;35570;48.218;16.326;2023-03-01T14:47:26;16.05;;;14.35;;
49678;SDS011;35570;48.218;16.326;2023-03-01T14:52:40;20.30;;;15.35;;
49678;SDS011;35570;48.218;16.326;2023-03-01T14:55:20;20.73;;;15.27;;
49678;SDS011;35570;48.218;16.326;2023-03-01T14:58:05;20.70;;;15.50;;
49678;SDS011;35570;48.218;16.326;2023-03-01T15:00:36;19.58;;;16.48;;
49678;SDS011;35570;48.218;16.326;2023-03-01T15:03:14;19.85;;;16.88;;
49678;SDS011;35570;48.218;16.326;2023-03-01T15:06:04;21.10;;;16.75;;
49678;SDS011;35570;48.218;16.326;2023-03-01T15:08:32;17.67;;;15.77;;
49678;SDS011;35570;48.218;16.326;2023-03-01T15:11:05;17.13;;;15.10;;
49678;SDS011;35570;48.218;16.326;2023-03-01T15:13:50;20.80;;;16.67;;
49678;SDS011;35570;48.218;16.326;2023-03-01T15:16:18;24.15;;;16.55;;
49678;SDS011;35570;48.218;16.326;2023-03-01T15:18:48;20.30;;;16.13;;
49678;SDS011;35570;48.218;16.326;2023-03-01T15:21:27;20.80;;;17.08;;
49678;SDS011;35570;48.218;16.326;2023-03-01T15:26:43;19.55;;;16.90;;
49678;SDS011;35570;48.218;16.326;2023-03-01T15:29:19;23.08;;;17.17;;
49678;SDS011;35570;48.218;16.326;2023-03-01T15:34:24;22.40;;;16.88;;
49678;SDS011;35570;48.218;16.326;2023-03-01T15:36:55;23.30;;;18.45;;
49678;SDS011;35570;48.218;16.326;2023-03-01T15:42:09;25.73;;;19.10;;
49678;SDS011;35570;48.218;16.326;2023-03-01T15:44:38;22.85;;;17.58;;
49678;SDS011;35570;48.218;16.326;2023-03-01T15:49:47;23.15;;;18.40;;
49678;SDS011;35570;48.218;16.326;2023-03-01T15:52:32;22.90;;;19.23;;
49678;SDS011;35570;48.218;16.326;2023-03-01T15:55:05;32.47;;;22.08;;
49678;SDS011;35570;48.218;16.326;2023-03-01T15:57:40;29.45;;;21.13;;
49678;SDS011;35570;48.218;16.326;2023-03-01T16:00:06;23.73;;;18.65;;
49678;SDS011;35570;48.218;16.326;2023-03-01T16:02:38;23.45;;;17.70;;
49678;SDS011;35570;48.218;16.326;2023-03-01T16:05:05;26.88;;;18.25;;
49678;SDS011;35570;48.218;16.326;2023-03-01T16:07:39;23.65;;;17.77;;
49678;SDS011;35570;48.218;16.326;2023-03-01T16:10:05;27.10;;;17.60;;
49678;SDS011;35570;48.218;16.326;2023-03-01T16:12:31;21.48;;;18.13;;
49678;SDS011;35570;48.218;16.326;2023-03-01T16:14:56;23.83;;;17.83;;
49678;SDS011;35570;48.218;16.326;2023-03-01T16:17:22;26.15;;;20.45;;
49678;SDS011;35570;48.218;16.326;2023-03-01T16:19:48;26.58;;;19.50;;
49678;SDS011;35570;48.218;16.326;2023-03-01T16:22:14;23.58;;;18.67;;
49678;SDS011;35570;48.218;16.326;2023-03-01T16:24:39;19.85;;;17.13;;
49678;SDS011;35570;48.218;16.326;2023-03-01T16:27:06;25.00;;;17.75;;
49678;SDS011;35570;48.218;16.326;2023-03-01T16:29:32;25.38;;;18.08;;
49678;SDS011;35570;48.218;16.326;2023-03-01T16:32:01;21.77;;;16.95;;
49678;SDS011;35570;48.218;16.326;2023-03-01T16:34:27;29.58;;;16.85;;
49678;SDS011;35570;48.218;16.326;2023-03-01T16:36:52;22.77;;;16.52;;
49678;SDS011;35570;48.218;16.326;2023-03-01T16:39:18;25.17;;;17.25;;
49678;SDS011;35570;48.218;16.326;2023-03-01T16:41:44;22.85;;;17.60;;
49678;SDS011;35570;48.218;16.326;2023-03-01T16:44:10;21.95;;;16.10;;
49678;SDS011;35570;48.218;16.326;2023-03-01T16:46:35;25.00;;;17.48;;
49678;SDS011;35570;48.218;16.326;2023-03-01T16:49:01;27.50;;;19.55;;
49678;SDS011;35570;48.218;16.326;2023-03-01T16:51:28;25.40;;;18.35;;
49678;SDS011;35570;48.218;16.326;2023-03-01T16:53:54;25.83;;;19.38;;
49678;SDS011;35570;48.218;16.326;2023-03-01T16:56:20;24.42;;;18.40;;
49678;SDS011;35570;48.218;16.326;2023-03-01T16:58:46;27.67;;;18.90;;
49678;SDS011;35570;48.218;16.326;2023-03-01T17:01:17;25.88;;;19.40;;
49678;SDS011;35570;48.218;16.326;2023-03-01T17:03:47;22.83;;;18.67;;
49678;SDS011;35570;48.218;16.326;2023-03-01T17:06:16;25.85;;;18.13;;
49678;SDS011;35570;48.218;16.326;2023-03-01T17:08:45;24.90;;;18.17;;
49678;SDS011;35570;48.218;16.326;2023-03-01T17:11:12;23.42;;;17.65;;
49678;SDS011;35570;48.218;16.326;2023-03-01T17:13:42;24.80;;;18.42;;
49678;SDS011;35570;48.218;16.326;2023-03-01T17:16:10;26.67;;;18.90;;
49678;SDS011;35570;48.218;16.326;2023-03-01T17:18:38;26.45;;;18.67;;
49678;SDS011;35570;48.218;16.326;2023-03-01T17:21:04;24.08;;;18.00;;
49678;SDS011;35570;48.218;16.326;2023-03-01T17:23:32;25.35;;;18.45;;
49678;SDS011;35570;48.218;16.326;2023-03-01T17:25:59;25.90;;;19.48;;
49678;SDS011;35570;48.218;16.326;2023-03-01T17:28:26;27.75;;;20.23;;
49678;SDS011;35570;48.218;16.326;2023-03-01T17:30:54;24.50;;;19.02;;
49678;SDS011;35570;48.218;16.326;2023-03-01T17:33:21;26.42;;;19.23;;
49678;SDS011;35570;48.218;16.326;2023-03-01T17:35:47;28.95;;;19.88;;
49678;SDS011;35570;48.218;16.326;2023-03-01T17:38:14;27.33;;;19.63;;
49678;SDS011;35570;48.218;16.326;2023-03-01T17:40:43;27.80;;;19.67;;
49678;SDS011;35570;48.218;16.326;2023-03-01T17:43:13;28.90;;;21.35;;
49678;SDS011;35570;48.218;16.326;2023-03-01T17:45:40;32.78;;;18.40;;
49678;SDS011;35570;48.218;16.326;2023-03-01T17:48:10;30.23;;;20.90;;
49678;SDS011;35570;48.218;16.326;2023-03-01T17:50:36;30.15;;;20.70;;
49678;SDS011;35570;48.218;16.326;2023-03-01T17:53:04;35.38;;;22.38;;
49678;SDS011;35570;48.218;16.326;2023-03-01T17:55:34;34.60;;;24.02;;
49678;SDS011;35570;48.218;16.326;2023-03-01T17:58:02;32.72;;;23.45;;
49678;SDS011;35570;48.218;16.326;2023-03-01T18:00:29;30.45;;;22.80;;
49678;SDS011;35570;48.218;16.326;2023-03-01T18:02:55;28.58;;;21.55;;
49678;SDS011;35570;48.218;16.326;2023-03-01T18:05:23;34.35;;;22.10;;
49678;SDS011;35570;48.218;16.326;2023-03-01T18:07:50;28.48;;;20.25;;
49678;SDS011;35570;48.218;16.326;2023-03-01T18:10:17;28.50;;;21.58;;
49678;SDS011;35570;48.218;16.326;2023-03-01T18:12:44;32.17;;;23.02;;
49678;SDS011;35570;48.218;16.326;2023-03-01T18:15:11;31.25;;;22.73;;
49678;SDS011;35570;48.218;16.326;2023-03-01T18:17:38;33.55;;;23.15;;
49678;SDS011;35570;48.218;16.326;2023-03-01T18:20:05;31.33;;;22.60;;
49678;SDS011;35570;48.218;16.326;2023-03-01T18:22:32;34.42;;;22.50;;
49678;SDS011;35570;48.218;16.326;2023-03-01T18:24:58;34.28;;;23.35;;
49678;SDS011;35570;48.218;16.326;2023-03-01T18:27:24;35.75;;;23.88;;
49678;SDS011;35570;48.218;16.326;2023-03-01T18:29:50;33.50;;;23.55;;
49678;SDS011;35570;48.218;16.326;2023-03-01T18:32:17;36.97;;;24.55;;
49678;SDS011;35570;48.218;16.326;2023-03-01T18:34:43;36.85;;;23.75;;
49678;SDS011;35570;48.218;16.326;2023-03-01T19:20:10;37.50;;;23.65;;
49678;SDS011;35570;48.218;16.326;2023-03-01T19:22:43;34.83;;;24.55;;
49678;SDS011;35570;48.218;16.326;2023-03-01T19:25:11;35.40;;;23.25;;
49678;SDS011;35570;48.218;16.326;2023-03-01T19:27:38;29.88;;;21.50;;
49678;SDS011;35570;48.218;16.326;2023-03-01T19:30:06;32.83;;;23.00;;
49678;SDS011;35570;48.218;16.326;2023-03-01T19:32:33;29.40;;;22.67;;
49678;SDS011;35570;48.218;16.326;2023-03-01T19:37:34;31.80;;;22.48;;
49678;SDS011;35570;48.218;16.326;2023-03-01T19:42:36;34.72;;;23.55;;
49678;SDS011;35570;48.218;16.326;2023-03-01T19:58:27;38.83;;;24.63;;
49678;SDS011;35570;48.218;16.326;2023-03-01T20:57:53;32.72;;;22.35;;
49678;SDS011;35570;48.218;16.326;2023-03-01T21:00:19;34.30;;;22.98;;
49678;SDS011;35570;48.218;16.326;2023-03-01T21:02:45;36.90;;;23.58;;
49678;SDS011;35570;48.218;16.326;2023-03-01T21:05:11;31.30;;;22.38;;
49678;SDS011;35570;48.218;16.326;2023-03-01T21:07:37;29.30;;;21.08;;
49678;SDS011;35570;48.218;16.326;2023-03-01T21:10:04;32.13;;;21.88;;
49678;SDS011;35570;48.218;16.326;2023-03-01T21:35:48;36.58;;;25.30;;
49678;SDS011;35570;48.218;16.326;2023-03-01T21:41:10;34.80;;;24.17;;
49678;SDS011;35570;48.218;16.326;2023-03-01T21:43:46;32.92;;;22.88;;
49678;SDS011;35570;48.218;16.326;2023-03-01T21:51:39;39.85;;;25.65;;
49678;SDS011;35570;48.218;16.326;2023-03-01T21:54:06;35.30;;;25.42;;
49678;SDS011;35570;48.218;16.326;2023-03-01T21:56:34;39.83;;;28.08;;
49678;SDS011;35570;48.218;16.326;2023-03-01T21:59:03;36.58;;;25.02;;
49678;SDS011;35570;48.218;16.326;2023-03-01T22:01:46;33.67;;;25.40;;
49678;SDS011;35570;48.218;16.326;2023-03-01T22:04:13;37.35;;;26.25;;
49678;SDS011;35570;48.218;16.326;2023-03-01T22:06:43;35.58;;;26.20;;
49678;SDS011;35570;48.218;16.326;2023-03-01T22:11:45;39.83;;;27.80;;
49678;SDS011;35570;48.218;16.326;2023-03-01T22:14:12;40.90;;;28.43;;
49678;SDS011;35570;48.218;16.326;2023-03-01T22:16:39;39.42;;;29.27;;
49678;SDS011;35570;48.218;16.326;2023-03-01T22:19:09;40.80;;;27.58;;
49678;SDS011;35570;48.218;16.326;2023-03-01T22:21:39;39.78;;;27.52;;
49678;SDS011;35570;48.218;16.326;2023-03-01T22:24:07;40.90;;;28.55;;
49678;SDS011;35570;48.218;16.326;2023-03-01T22:26:35;41.30;;;28.55;;
49678;SDS011;35570;48.218;16.326;2023-03-01T22:29:04;41.60;;;29.52;;
49678;SDS011;35570;48.218;16.326;2023-03-01T22:31:32;39.75;;;27.85;;
49678;SDS011;35570;48.218;16.326;2023-03-01T22:33:58;42.78;;;28.85;;
49678;SDS011;35570;48.218;16.326;2023-03-01T22:36:25;40.53;;;28.35;;
49678;SDS011;35570;48.218;16.326;2023-03-01T22:38:52;41.63;;;28.95;;
49678;SDS011;35570;48.218;16.326;2023-03-01T22:41:24;43.65;;;30.33;;
49678;SDS011;35570;48.218;16.326;2023-03-01T22:43:54;44.55;;;31.88;;
49678;SDS011;35570;48.218;16.326;2023-03-01T22:46:20;45.08;;;31.25;;
49678;SDS011;35570;48.218;16.326;2023-03-01T22:48:46;41.78;;;30.48;;
49678;SDS011;35570;48.218;16.326;2023-03-01T22:51:13;43.03;;;31.13;;
49678;SDS011;35570;48.218;16.326;2023-03-01T22:53:39;43.67;;;30.65;;
49678;SDS011;35570;48.218;16.326;2023-03-01T22:56:12;43.10;;;31.27;;
49678;SDS011;35570;48.218;16.326;2023-03-01T23:01:20;47.45;;;31.75;;
49678;SDS011;35570;48.218;16.326;2023-03-01T23:03:47;45.78;;;31.13;;
49678;SDS011;35570;48.218;16.326;2023-03-01T23:06:14;46.35;;;32.03;;
49678;SDS011;35570;48.218;16.326;2023-03-01T23:08:41;44.90;;;31.92;;
49678;SDS011;35570;48.218;16.326;2023-03-01T23:11:09;46.00;;;31.05;;
49678;SDS011;35570;48.218;16.326;2023-03-01T23:13:36;45.25;;;31.80;;
49678;SDS011;35570;48.218;16.326;2023-03-01T23:16:02;45.17;;;32.15;;
49678;SDS011;35570;48.218;16.326;2023-03-01T23:18:28;47.28;;;31.63;;
49678;SDS011;35570;48.218;16.326;2023-03-01T23:20:53;42.15;;;30.83;;
49678;SDS011;35570;48.218;16.326;2023-03-01T23:23:19;44.65;;;32.60;;
49678;SDS011;35570;48.218;16.326;2023-03-01T23:25:52;46.78;;;32.65;;
49678;SDS011;35570;48.218;16.326;2023-03-01T23:28:19;45.08;;;32.03;;
49678;SDS011;35570;48.218;16.326;2023-03-01T23:30:55;43.28;;;31.15;;
49678;SDS011;35570;48.218;16.326;2023-03-01T23:33:22;50.90;;;32.53;;
49678;SDS011;35570;48.218;16.326;2023-03-01T23:35:48;46.13;;;33.03;;
49678;SDS011;35570;48.218;16.326;2023-03-01T23:38:14;48.47;;;34.00;;
49678;SDS011;35570;48.218;16.326;2023-03-01T23:40:40;52.63;;;33.45;;
49678;SDS011;35570;48.218;16.326;2023-03-01T23:43:05;48.20;;;32.67;;
49678;SDS011;35570;48.218;16.326;2023-03-01T23:45:31;50.00;;;32.25;;
49678;SDS011;35570;48.218;16.326;2023-03-01T23:47:57;45.47;;;31.95;;
49678;SDS011;35570;48.218;16.326;2023-03-01T23:50:22;49.75;;;33.17;;
49678;SDS011;35570;48.218;16.326;2023-03-01T23:52:48;57.97;;;37.60;;
49678;SDS011;35570;48.218;16.326;2023-03-01T23:55:13;53.35;;;37.13;;
49678;SDS011;35570;48.218;16.326;2023-03-01T23:57:40;58.78;;;41.10;;
